sensor_id;sensor_type;location;lat;lon;timestamp;temperature;humidity
72650;SHT31;61467;50.674;4.618;2022-12-29T00:01:25;11.50;80.81
72650;SHT31;61467;50.674;4.618;2022-12-29T00:03:52;11.43;80.45
72650;SHT31;61467;50.674;4.618;2022-12-29T00:06:19;11.39;80.51
72650;SHT31;61467;50.674;4.618;2022-12-29T00:08:46;11.36;80.72
72650;SHT31;61467;50.674;4.618;2022-12-29T00:11:15;11.36;80.29
72650;SHT31;61467;50.674;4.618;2022-12-29T00:13:44;11.37;79.76
72650;SHT31;61467;50.674;4.618;2022-12-29T00:16:29;11.43;79.58
72650;SHT31;61467;50.674;4.618;2022-12-29T00:18:56;11.47;79.38
72650;SHT31;61467;50.674;4.618;2022-12-29T00:21:24;11.53;79.23
72650;SHT31;61467;50.674;4.618;2022-12-29T00:24:12;11.57;79.29
72650;SHT31;61467;50.674;4.618;2022-12-29T00:27:12;11.54;79.17
72650;SHT31;61467;50.674;4.618;2022-12-29T00:29:58;11.43;79.33
72650;SHT31;61467;50.674;4.618;2022-12-29T00:32:42;11.42;79.25
72650;SHT31;61467;50.674;4.618;2022-12-29T00:35:29;11.50;78.81
72650;SHT31;61467;50.674;4.618;2022-12-29T00:37:59;11.53;78.78
72650;SHT31;61467;50.674;4.618;2022-12-29T00:40:45;11.56;78.68
72650;SHT31;61467;50.674;4.618;2022-12-29T00:43:29;11.56;78.57
72650;SHT31;61467;50.674;4.618;2022-12-29T00:46:15;11.57;78.63
72650;SHT31;61467;50.674;4.618;2022-12-29T00:48:44;11.56;78.60
72650;SHT31;61467;50.674;4.618;2022-12-29T00:51:29;11.46;79.02
72650;SHT31;61467;50.674;4.618;2022-12-29T00:53:56;11.53;78.51
72650;SHT31;61467;50.674;4.618;2022-12-29T00:56:22;11.50;78.63
72650;SHT31;61467;50.674;4.618;2022-12-29T00:58:49;11.56;78.34
72650;SHT31;61467;50.674;4.618;2022-12-29T01:01:17;11.56;78.39
72650;SHT31;61467;50.674;4.618;2022-12-29T01:03:44;11.64;78.08
72650;SHT31;61467;50.674;4.618;2022-12-29T01:06:11;11.66;78.09
72650;SHT31;61467;50.674;4.618;2022-12-29T01:08:38;11.70;78.12
72650;SHT31;61467;50.674;4.618;2022-12-29T01:11:06;11.47;78.81
72650;SHT31;61467;50.674;4.618;2022-12-29T01:13:33;11.62;78.86
72650;SHT31;61467;50.674;4.618;2022-12-29T01:16:00;11.59;78.50
72650;SHT31;61467;50.674;4.618;2022-12-29T01:18:29;11.53;78.90
72650;SHT31;61467;50.674;4.618;2022-12-29T01:20:59;11.47;79.21
72650;SHT31;61467;50.674;4.618;2022-12-29T01:23:27;11.49;80.06
72650;SHT31;61467;50.674;4.618;2022-12-29T01:25:54;11.40;80.22
72650;SHT31;61467;50.674;4.618;2022-12-29T01:28:21;11.34;80.57
72650;SHT31;61467;50.674;4.618;2022-12-29T01:30:48;11.50;80.68
72650;SHT31;61467;50.674;4.618;2022-12-29T01:33:15;11.20;81.75
72650;SHT31;61467;50.674;4.618;2022-12-29T01:35:43;11.44;81.42
72650;SHT31;61467;50.674;4.618;2022-12-29T01:38:10;11.26;82.02
72650;SHT31;61467;50.674;4.618;2022-12-29T01:40:43;11.23;82.18
72650;SHT31;61467;50.674;4.618;2022-12-29T01:43:11;11.11;82.50
72650;SHT31;61467;50.674;4.618;2022-12-29T01:45:42;11.22;81.72
72650;SHT31;61467;50.674;4.618;2022-12-29T01:48:11;11.25;81.62
72650;SHT31;61467;50.674;4.618;2022-12-29T01:50:43;11.20;81.56
72650;SHT31;61467;50.674;4.618;2022-12-29T01:53:16;11.26;81.32
72650;SHT31;61467;50.674;4.618;2022-12-29T01:55:48;11.25;82.03
72650;SHT31;61467;50.674;4.618;2022-12-29T01:58:17;11.27;81.92
72650;SHT31;61467;50.674;4.618;2022-12-29T02:00:45;11.25;82.29
72650;SHT31;61467;50.674;4.618;2022-12-29T02:03:12;11.22;82.78
72650;SHT31;61467;50.674;4.618;2022-12-29T02:05:46;11.04;83.78
72650;SHT31;61467;50.674;4.618;2022-12-29T02:08:14;10.94;84.80
72650;SHT31;61467;50.674;4.618;2022-12-29T02:10:42;10.95;85.42
72650;SHT31;61467;50.674;4.618;2022-12-29T02:13:09;10.94;85.31
72650;SHT31;61467;50.674;4.618;2022-12-29T02:15:54;11.01;85.54
72650;SHT31;61467;50.674;4.618;2022-12-29T02:18:30;11.06;85.33
72650;SHT31;61467;50.674;4.618;2022-12-29T02:21:40;10.95;85.82
72650;SHT31;61467;50.674;4.618;2022-12-29T02:27:27;11.06;85.35
72650;SHT31;61467;50.674;4.618;2022-12-29T02:30:12;11.18;84.35
72650;SHT31;61467;50.674;4.618;2022-12-29T02:32:50;11.05;85.19
72650;SHT31;61467;50.674;4.618;2022-12-29T02:35:25;11.04;85.20
72650;SHT31;61467;50.674;4.618;2022-12-29T02:38:02;10.94;85.68
72650;SHT31;61467;50.674;4.618;2022-12-29T02:40:37;10.96;85.40
72650;SHT31;61467;50.674;4.618;2022-12-29T02:43:13;10.92;86.21
72650;SHT31;61467;50.674;4.618;2022-12-29T02:45:47;10.96;86.56
72650;SHT31;61467;50.674;4.618;2022-12-29T02:48:18;10.91;86.14
72650;SHT31;61467;50.674;4.618;2022-12-29T02:50:53;10.88;86.76
72650;SHT31;61467;50.674;4.618;2022-12-29T02:53:23;10.89;86.26
72650;SHT31;61467;50.674;4.618;2022-12-29T02:56:05;10.95;86.33
72650;SHT31;61467;50.674;4.618;2022-12-29T02:58:32;10.96;86.44
72650;SHT31;61467;50.674;4.618;2022-12-29T03:01:08;10.86;86.78
72650;SHT31;61467;50.674;4.618;2022-12-29T03:03:48;10.84;86.42
72650;SHT31;61467;50.674;4.618;2022-12-29T03:06:25;10.95;86.25
72650;SHT31;61467;50.674;4.618;2022-12-29T03:09:03;10.91;84.97
72650;SHT31;61467;50.674;4.618;2022-12-29T03:11:44;10.99;84.73
72650;SHT31;61467;50.674;4.618;2022-12-29T03:14:34;10.98;84.46
72650;SHT31;61467;50.674;4.618;2022-12-29T03:17:26;10.89;84.33
72650;SHT31;61467;50.674;4.618;2022-12-29T03:20:01;10.94;84.61
72650;SHT31;61467;50.674;4.618;2022-12-29T03:22:32;10.94;84.81
72650;SHT31;61467;50.674;4.618;2022-12-29T03:25:08;10.98;84.64
72650;SHT31;61467;50.674;4.618;2022-12-29T03:27:40;10.95;84.88
72650;SHT31;61467;50.674;4.618;2022-12-29T03:30:08;10.86;85.20
72650;SHT31;61467;50.674;4.618;2022-12-29T03:32:38;10.92;85.17
72650;SHT31;61467;50.674;4.618;2022-12-29T03:35:11;10.81;85.98
72650;SHT31;61467;50.674;4.618;2022-12-29T03:37:41;10.72;86.23
72650;SHT31;61467;50.674;4.618;2022-12-29T03:40:09;10.81;86.03
72650;SHT31;61467;50.674;4.618;2022-12-29T03:42:38;10.61;84.49
72650;SHT31;61467;50.674;4.618;2022-12-29T03:45:07;10.61;83.87
72650;SHT31;61467;50.674;4.618;2022-12-29T03:47:34;10.50;83.18
72650;SHT31;61467;50.674;4.618;2022-12-29T03:50:01;10.43;83.46
72650;SHT31;61467;50.674;4.618;2022-12-29T03:52:29;10.30;83.86
72650;SHT31;61467;50.674;4.618;2022-12-29T03:54:56;10.54;83.65
72650;SHT31;61467;50.674;4.618;2022-12-29T03:57:23;10.37;84.19
72650;SHT31;61467;50.674;4.618;2022-12-29T03:59:49;10.53;84.45
72650;SHT31;61467;50.674;4.618;2022-12-29T04:02:16;10.58;84.14
72650;SHT31;61467;50.674;4.618;2022-12-29T04:04:43;10.55;84.11
72650;SHT31;61467;50.674;4.618;2022-12-29T04:07:10;10.69;83.94
72650;SHT31;61467;50.674;4.618;2022-12-29T04:09:38;10.68;84.17
72650;SHT31;61467;50.674;4.618;2022-12-29T04:12:05;10.71;83.97
72650;SHT31;61467;50.674;4.618;2022-12-29T04:14:32;10.74;83.95
72650;SHT31;61467;50.674;4.618;2022-12-29T04:16:59;10.75;83.97
72650;SHT31;61467;50.674;4.618;2022-12-29T04:19:26;10.69;83.68
72650;SHT31;61467;50.674;4.618;2022-12-29T04:21:53;10.60;83.73
72650;SHT31;61467;50.674;4.618;2022-12-29T04:24:20;10.61;83.20
72650;SHT31;61467;50.674;4.618;2022-12-29T04:26:48;10.54;83.52
72650;SHT31;61467;50.674;4.618;2022-12-29T04:29:15;10.53;83.29
72650;SHT31;61467;50.674;4.618;2022-12-29T04:31:42;10.55;82.76
72650;SHT31;61467;50.674;4.618;2022-12-29T04:34:09;10.76;81.63
72650;SHT31;61467;50.674;4.618;2022-12-29T04:36:36;10.72;81.74
72650;SHT31;61467;50.674;4.618;2022-12-29T04:39:02;10.64;81.72
72650;SHT31;61467;50.674;4.618;2022-12-29T04:41:30;10.55;81.76
72650;SHT31;61467;50.674;4.618;2022-12-29T04:43:58;10.68;81.03
72650;SHT31;61467;50.674;4.618;2022-12-29T04:46:25;10.69;81.12
72650;SHT31;61467;50.674;4.618;2022-12-29T04:48:52;10.67;80.83
72650;SHT31;61467;50.674;4.618;2022-12-29T04:51:19;10.58;81.13
72650;SHT31;61467;50.674;4.618;2022-12-29T04:53:46;10.65;80.52
72650;SHT31;61467;50.674;4.618;2022-12-29T04:56:13;10.63;80.39
72650;SHT31;61467;50.674;4.618;2022-12-29T04:58:39;10.71;80.34
72650;SHT31;61467;50.674;4.618;2022-12-29T05:01:08;10.58;80.29
72650;SHT31;61467;50.674;4.618;2022-12-29T05:03:34;10.58;80.44
72650;SHT31;61467;50.674;4.618;2022-12-29T05:06:01;10.67;80.02
72650;SHT31;61467;50.674;4.618;2022-12-29T05:08:28;10.84;79.63
72650;SHT31;61467;50.674;4.618;2022-12-29T05:10:55;10.76;79.95
72650;SHT31;61467;50.674;4.618;2022-12-29T05:13:22;10.68;79.56
72650;SHT31;61467;50.674;4.618;2022-12-29T05:15:49;10.79;79.71
72650;SHT31;61467;50.674;4.618;2022-12-29T05:18:18;10.76;79.27
72650;SHT31;61467;50.674;4.618;2022-12-29T05:20:46;10.67;79.58
72650;SHT31;61467;50.674;4.618;2022-12-29T05:23:14;10.75;79.13
72650;SHT31;61467;50.674;4.618;2022-12-29T05:25:43;10.78;78.76
72650;SHT31;61467;50.674;4.618;2022-12-29T05:28:11;10.78;78.79
72650;SHT31;61467;50.674;4.618;2022-12-29T05:30:38;10.76;78.32
72650;SHT31;61467;50.674;4.618;2022-12-29T05:33:05;10.82;77.82
72650;SHT31;61467;50.674;4.618;2022-12-29T05:35:34;10.76;77.99
72650;SHT31;61467;50.674;4.618;2022-12-29T05:38:00;10.74;77.81
72650;SHT31;61467;50.674;4.618;2022-12-29T05:40:27;10.84;77.23
72650;SHT31;61467;50.674;4.618;2022-12-29T05:42:54;10.67;77.75
72650;SHT31;61467;50.674;4.618;2022-12-29T05:45:21;10.64;78.14
72650;SHT31;61467;50.674;4.618;2022-12-29T05:47:48;10.76;77.96
72650;SHT31;61467;50.674;4.618;2022-12-29T05:50:14;10.75;78.17
72650;SHT31;61467;50.674;4.618;2022-12-29T05:52:43;10.76;77.04
72650;SHT31;61467;50.674;4.618;2022-12-29T05:55:10;10.74;76.85
72650;SHT31;61467;50.674;4.618;2022-12-29T05:57:37;10.61;77.22
72650;SHT31;61467;50.674;4.618;2022-12-29T06:00:05;10.64;77.27
72650;SHT31;61467;50.674;4.618;2022-12-29T06:02:32;10.75;76.58
72650;SHT31;61467;50.674;4.618;2022-12-29T06:04:59;10.71;77.00
72650;SHT31;61467;50.674;4.618;2022-12-29T06:07:26;10.82;76.38
72650;SHT31;61467;50.674;4.618;2022-12-29T06:09:54;10.85;76.33
72650;SHT31;61467;50.674;4.618;2022-12-29T06:12:21;10.74;76.71
72650;SHT31;61467;50.674;4.618;2022-12-29T06:14:47;11.02;76.12
72650;SHT31;61467;50.674;4.618;2022-12-29T06:17:14;10.79;76.45
72650;SHT31;61467;50.674;4.618;2022-12-29T06:19:41;10.78;76.28
72650;SHT31;61467;50.674;4.618;2022-12-29T06:22:09;10.79;76.56
72650;SHT31;61467;50.674;4.618;2022-12-29T06:24:37;10.85;76.59
72650;SHT31;61467;50.674;4.618;2022-12-29T06:27:05;10.91;76.54
72650;SHT31;61467;50.674;4.618;2022-12-29T06:29:32;10.95;76.36
72650;SHT31;61467;50.674;4.618;2022-12-29T06:32:01;10.76;77.01
72650;SHT31;61467;50.674;4.618;2022-12-29T06:34:28;10.71;77.37
72650;SHT31;61467;50.674;4.618;2022-12-29T06:36:55;10.60;78.11
72650;SHT31;61467;50.674;4.618;2022-12-29T06:39:22;10.58;78.12
72650;SHT31;61467;50.674;4.618;2022-12-29T06:41:51;10.76;76.89
72650;SHT31;61467;50.674;4.618;2022-12-29T06:44:20;10.68;77.55
72650;SHT31;61467;50.674;4.618;2022-12-29T06:46:47;10.64;76.66
72650;SHT31;61467;50.674;4.618;2022-12-29T06:49:14;10.60;76.42
72650;SHT31;61467;50.674;4.618;2022-12-29T06:51:41;10.67;77.29
72650;SHT31;61467;50.674;4.618;2022-12-29T06:54:08;10.60;77.91
72650;SHT31;61467;50.674;4.618;2022-12-29T06:56:35;10.60;78.50
72650;SHT31;61467;50.674;4.618;2022-12-29T06:59:01;10.38;79.11
72650;SHT31;61467;50.674;4.618;2022-12-29T07:01:30;10.47;79.25
72650;SHT31;61467;50.674;4.618;2022-12-29T07:03:56;10.40;78.66
72650;SHT31;61467;50.674;4.618;2022-12-29T07:06:24;10.47;78.58
72650;SHT31;61467;50.674;4.618;2022-12-29T07:08:50;10.57;77.67
72650;SHT31;61467;50.674;4.618;2022-12-29T07:11:20;10.48;77.90
72650;SHT31;61467;50.674;4.618;2022-12-29T07:13:47;10.47;78.91
72650;SHT31;61467;50.674;4.618;2022-12-29T07:16:14;10.23;80.34
72650;SHT31;61467;50.674;4.618;2022-12-29T07:18:42;10.18;80.28
72650;SHT31;61467;50.674;4.618;2022-12-29T07:21:09;10.24;79.92
72650;SHT31;61467;50.674;4.618;2022-12-29T07:23:37;10.23;79.40
72650;SHT31;61467;50.674;4.618;2022-12-29T07:26:06;10.32;78.24
72650;SHT31;61467;50.674;4.618;2022-12-29T07:28:34;10.20;78.12
72650;SHT31;61467;50.674;4.618;2022-12-29T07:31:03;10.16;77.72
72650;SHT31;61467;50.674;4.618;2022-12-29T07:33:32;10.13;78.02
72650;SHT31;61467;50.674;4.618;2022-12-29T07:36:00;10.17;78.20
72650;SHT31;61467;50.674;4.618;2022-12-29T07:38:27;10.13;78.46
72650;SHT31;61467;50.674;4.618;2022-12-29T07:40:57;10.26;77.31
72650;SHT31;61467;50.674;4.618;2022-12-29T07:43:24;10.29;76.90
72650;SHT31;61467;50.674;4.618;2022-12-29T07:45:51;10.21;77.09
72650;SHT31;61467;50.674;4.618;2022-12-29T07:48:18;10.20;76.31
72650;SHT31;61467;50.674;4.618;2022-12-29T07:50:45;10.30;75.58
72650;SHT31;61467;50.674;4.618;2022-12-29T07:53:13;10.30;75.76
72650;SHT31;61467;50.674;4.618;2022-12-29T07:55:41;10.30;74.83
72650;SHT31;61467;50.674;4.618;2022-12-29T07:58:08;10.21;74.76
72650;SHT31;61467;50.674;4.618;2022-12-29T08:00:35;10.30;74.31
72650;SHT31;61467;50.674;4.618;2022-12-29T08:03:03;10.47;73.30
72650;SHT31;61467;50.674;4.618;2022-12-29T08:05:30;10.40;73.55
72650;SHT31;61467;50.674;4.618;2022-12-29T08:07:57;10.40;73.40
72650;SHT31;61467;50.674;4.618;2022-12-29T08:10:25;10.32;73.91
72650;SHT31;61467;50.674;4.618;2022-12-29T08:12:52;10.24;74.58
72650;SHT31;61467;50.674;4.618;2022-12-29T08:15:19;10.38;73.92
72650;SHT31;61467;50.674;4.618;2022-12-29T08:17:46;10.23;74.29
72650;SHT31;61467;50.674;4.618;2022-12-29T08:20:13;10.27;73.73
72650;SHT31;61467;50.674;4.618;2022-12-29T08:22:40;10.41;73.72
72650;SHT31;61467;50.674;4.618;2022-12-29T08:25:07;10.40;73.39
72650;SHT31;61467;50.674;4.618;2022-12-29T08:27:36;10.26;73.91
72650;SHT31;61467;50.674;4.618;2022-12-29T08:30:03;10.37;73.14
72650;SHT31;61467;50.674;4.618;2022-12-29T08:32:30;10.34;73.66
72650;SHT31;61467;50.674;4.618;2022-12-29T08:34:57;10.36;73.48
72650;SHT31;61467;50.674;4.618;2022-12-29T08:37:25;10.37;73.48
72650;SHT31;61467;50.674;4.618;2022-12-29T08:39:51;10.32;73.36
72650;SHT31;61467;50.674;4.618;2022-12-29T08:42:18;10.32;73.52
72650;SHT31;61467;50.674;4.618;2022-12-29T08:44:46;10.34;73.24
72650;SHT31;61467;50.674;4.618;2022-12-29T08:47:13;10.23;73.91
72650;SHT31;61467;50.674;4.618;2022-12-29T08:49:40;10.18;73.84
72650;SHT31;61467;50.674;4.618;2022-12-29T08:52:07;10.10;74.32
72650;SHT31;61467;50.674;4.618;2022-12-29T08:54:34;10.16;73.84
72650;SHT31;61467;50.674;4.618;2022-12-29T08:57:01;10.04;73.88
72650;SHT31;61467;50.674;4.618;2022-12-29T08:59:28;10.16;73.53
72650;SHT31;61467;50.674;4.618;2022-12-29T09:01:56;10.20;73.28
72650;SHT31;61467;50.674;4.618;2022-12-29T09:04:23;10.36;73.34
72650;SHT31;61467;50.674;4.618;2022-12-29T09:06:50;10.18;73.96
72650;SHT31;61467;50.674;4.618;2022-12-29T09:09:17;10.20;73.69
72650;SHT31;61467;50.674;4.618;2022-12-29T09:11:44;10.07;73.90
72650;SHT31;61467;50.674;4.618;2022-12-29T09:14:11;10.20;73.36
72650;SHT31;61467;50.674;4.618;2022-12-29T09:16:39;10.18;72.97
72650;SHT31;61467;50.674;4.618;2022-12-29T09:19:25;10.13;73.53
72650;SHT31;61467;50.674;4.618;2022-12-29T09:21:52;10.13;73.12
72650;SHT31;61467;50.674;4.618;2022-12-29T09:24:19;10.12;72.98
72650;SHT31;61467;50.674;4.618;2022-12-29T09:26:45;10.16;73.08
72650;SHT31;61467;50.674;4.618;2022-12-29T09:29:12;10.29;72.97
72650;SHT31;61467;50.674;4.618;2022-12-29T09:31:39;10.13;72.79
72650;SHT31;61467;50.674;4.618;2022-12-29T09:34:06;10.21;72.67
72650;SHT31;61467;50.674;4.618;2022-12-29T09:36:34;10.21;72.29
72650;SHT31;61467;50.674;4.618;2022-12-29T09:39:01;10.26;72.40
72650;SHT31;61467;50.674;4.618;2022-12-29T09:41:32;10.09;72.71
72650;SHT31;61467;50.674;4.618;2022-12-29T09:44:11;10.21;72.49
72650;SHT31;61467;50.674;4.618;2022-12-29T09:46:42;10.32;72.41
72650;SHT31;61467;50.674;4.618;2022-12-29T09:49:18;10.18;71.89
72650;SHT31;61467;50.674;4.618;2022-12-29T09:51:51;10.26;72.06
72650;SHT31;61467;50.674;4.618;2022-12-29T09:54:36;10.09;72.68
72650;SHT31;61467;50.674;4.618;2022-12-29T09:57:15;10.02;73.06
72650;SHT31;61467;50.674;4.618;2022-12-29T09:59:44;10.04;73.12
72650;SHT31;61467;50.674;4.618;2022-12-29T10:02:27;10.23;72.36
72650;SHT31;61467;50.674;4.618;2022-12-29T10:04:56;10.27;72.54
72650;SHT31;61467;50.674;4.618;2022-12-29T10:07:36;10.36;72.71
72650;SHT31;61467;50.674;4.618;2022-12-29T10:10:21;10.36;72.56
72650;SHT31;61467;50.674;4.618;2022-12-29T10:13:05;10.38;72.64
72650;SHT31;61467;50.674;4.618;2022-12-29T10:15:46;10.32;72.51
72650;SHT31;61467;50.674;4.618;2022-12-29T10:18:23;10.40;71.45
72650;SHT31;61467;50.674;4.618;2022-12-29T10:20:59;10.54;71.96
72650;SHT31;61467;50.674;4.618;2022-12-29T10:23:38;10.71;71.22
72650;SHT31;61467;50.674;4.618;2022-12-29T10:26:10;10.61;71.51
72650;SHT31;61467;50.674;4.618;2022-12-29T10:28:40;10.71;71.84
72650;SHT31;61467;50.674;4.618;2022-12-29T10:31:13;10.76;71.10
72650;SHT31;61467;50.674;4.618;2022-12-29T10:33:42;10.82;71.39
72650;SHT31;61467;50.674;4.618;2022-12-29T10:36:17;10.57;71.05
72650;SHT31;61467;50.674;4.618;2022-12-29T10:38:51;10.76;70.86
72650;SHT31;61467;50.674;4.618;2022-12-29T10:41:25;10.81;70.30
72650;SHT31;61467;50.674;4.618;2022-12-29T10:43:57;10.76;70.45
72650;SHT31;61467;50.674;4.618;2022-12-29T10:46:27;10.64;70.44
72650;SHT31;61467;50.674;4.618;2022-12-29T10:48:55;10.67;70.51
72650;SHT31;61467;50.674;4.618;2022-12-29T10:51:25;10.76;70.47
72650;SHT31;61467;50.674;4.618;2022-12-29T10:53:58;10.92;70.48
72650;SHT31;61467;50.674;4.618;2022-12-29T10:56:31;10.78;70.18
72650;SHT31;61467;50.674;4.618;2022-12-29T10:59:01;10.85;70.36
72650;SHT31;61467;50.674;4.618;2022-12-29T11:01:37;10.99;70.31
72650;SHT31;61467;50.674;4.618;2022-12-29T11:04:20;10.84;70.88
72650;SHT31;61467;50.674;4.618;2022-12-29T11:06:50;10.88;70.72
72650;SHT31;61467;50.674;4.618;2022-12-29T11:09:24;10.94;70.43
72650;SHT31;61467;50.674;4.618;2022-12-29T11:11:53;10.89;69.88
72650;SHT31;61467;50.674;4.618;2022-12-29T11:14:25;10.79;70.62
72650;SHT31;61467;50.674;4.618;2022-12-29T11:16:56;10.72;71.01
72650;SHT31;61467;50.674;4.618;2022-12-29T11:19:26;10.85;70.79
72650;SHT31;61467;50.674;4.618;2022-12-29T11:21:53;10.88;70.26
72650;SHT31;61467;50.674;4.618;2022-12-29T11:24:24;10.96;70.08
72650;SHT31;61467;50.674;4.618;2022-12-29T11:26:53;10.74;70.48
72650;SHT31;61467;50.674;4.618;2022-12-29T11:29:25;10.86;70.36
72650;SHT31;61467;50.674;4.618;2022-12-29T11:31:53;10.64;70.35
72650;SHT31;61467;50.674;4.618;2022-12-29T11:34:22;10.79;69.85
72650;SHT31;61467;50.674;4.618;2022-12-29T11:36:52;10.64;70.39
72650;SHT31;61467;50.674;4.618;2022-12-29T11:39:37;10.69;70.04
72650;SHT31;61467;50.674;4.618;2022-12-29T11:42:09;10.61;69.86
72650;SHT31;61467;50.674;4.618;2022-12-29T11:44:43;10.76;69.32
72650;SHT31;61467;50.674;4.618;2022-12-29T11:47:21;10.76;69.75
72650;SHT31;61467;50.674;4.618;2022-12-29T11:49:50;10.75;70.08
72650;SHT31;61467;50.674;4.618;2022-12-29T11:52:22;10.76;70.08
72650;SHT31;61467;50.674;4.618;2022-12-29T11:54:51;10.85;69.54
72650;SHT31;61467;50.674;4.618;2022-12-29T11:57:21;10.76;69.41
72650;SHT31;61467;50.674;4.618;2022-12-29T11:59:51;10.76;69.26
72650;SHT31;61467;50.674;4.618;2022-12-29T12:02:40;10.88;68.99
72650;SHT31;61467;50.674;4.618;2022-12-29T12:05:21;10.78;69.47
72650;SHT31;61467;50.674;4.618;2022-12-29T12:07:53;10.81;68.97
72650;SHT31;61467;50.674;4.618;2022-12-29T12:10:29;10.81;69.50
72650;SHT31;61467;50.674;4.618;2022-12-29T12:13:02;10.92;69.24
72650;SHT31;61467;50.674;4.618;2022-12-29T12:15:36;10.79;69.36
72650;SHT31;61467;50.674;4.618;2022-12-29T12:18:09;10.85;69.30
72650;SHT31;61467;50.674;4.618;2022-12-29T12:20:45;10.94;69.06
72650;SHT31;61467;50.674;4.618;2022-12-29T12:23:25;10.82;68.85
72650;SHT31;61467;50.674;4.618;2022-12-29T12:26:02;10.92;68.74
72650;SHT31;61467;50.674;4.618;2022-12-29T12:28:37;10.78;68.89
72650;SHT31;61467;50.674;4.618;2022-12-29T12:31:16;10.88;68.60
72650;SHT31;61467;50.674;4.618;2022-12-29T12:33:47;10.86;69.20
72650;SHT31;61467;50.674;4.618;2022-12-29T12:36:29;10.86;68.66
72650;SHT31;61467;50.674;4.618;2022-12-29T12:39:01;10.92;68.74
72650;SHT31;61467;50.674;4.618;2022-12-29T12:41:41;10.96;68.15
72650;SHT31;61467;50.674;4.618;2022-12-29T12:44:17;10.81;68.77
72650;SHT31;61467;50.674;4.618;2022-12-29T12:46:57;10.76;68.96
72650;SHT31;61467;50.674;4.618;2022-12-29T12:50:06;10.84;69.05
72650;SHT31;61467;50.674;4.618;2022-12-29T12:52:48;10.64;69.48
72650;SHT31;61467;50.674;4.618;2022-12-29T12:55:34;10.54;69.66
72650;SHT31;61467;50.674;4.618;2022-12-29T12:58:11;10.48;69.83
72650;SHT31;61467;50.674;4.618;2022-12-29T13:00:52;10.75;69.11
72650;SHT31;61467;50.674;4.618;2022-12-29T13:03:30;10.75;69.15
72650;SHT31;61467;50.674;4.618;2022-12-29T13:06:12;10.63;69.81
72650;SHT31;61467;50.674;4.618;2022-12-29T13:08:57;10.54;70.64
72650;SHT31;61467;50.674;4.618;2022-12-29T13:11:35;10.53;70.77
72650;SHT31;61467;50.674;4.618;2022-12-29T13:14:21;10.44;71.20
72650;SHT31;61467;50.674;4.618;2022-12-29T13:16:54;10.45;70.78
72650;SHT31;61467;50.674;4.618;2022-12-29T13:19:29;10.50;71.03
72650;SHT31;61467;50.674;4.618;2022-12-29T13:22:04;10.54;70.87
72650;SHT31;61467;50.674;4.618;2022-12-29T13:24:44;10.48;70.88
72650;SHT31;61467;50.674;4.618;2022-12-29T13:27:17;10.57;70.24
72650;SHT31;61467;50.674;4.618;2022-12-29T13:29:56;10.44;71.31
72650;SHT31;61467;50.674;4.618;2022-12-29T13:32:34;10.64;69.79
72650;SHT31;61467;50.674;4.618;2022-12-29T13:35:15;10.60;69.87
72650;SHT31;61467;50.674;4.618;2022-12-29T13:37:51;10.48;70.09
72650;SHT31;61467;50.674;4.618;2022-12-29T13:40:23;10.54;69.67
72650;SHT31;61467;50.674;4.618;2022-12-29T13:42:52;10.63;69.16
72650;SHT31;61467;50.674;4.618;2022-12-29T13:45:23;10.71;69.07
72650;SHT31;61467;50.674;4.618;2022-12-29T13:47:56;10.78;68.56
72650;SHT31;61467;50.674;4.618;2022-12-29T13:50:26;10.79;68.62
72650;SHT31;61467;50.674;4.618;2022-12-29T13:53:01;10.76;68.10
72650;SHT31;61467;50.674;4.618;2022-12-29T13:55:32;10.67;68.15
72650;SHT31;61467;50.674;4.618;2022-12-29T13:58:07;10.72;68.52
72650;SHT31;61467;50.674;4.618;2022-12-29T14:00:43;10.79;68.24
72650;SHT31;61467;50.674;4.618;2022-12-29T14:03:23;10.69;68.92
72650;SHT31;61467;50.674;4.618;2022-12-29T14:06:05;10.67;68.96
72650;SHT31;61467;50.674;4.618;2022-12-29T14:08:37;10.48;69.29
72650;SHT31;61467;50.674;4.618;2022-12-29T14:11:09;10.51;69.60
72650;SHT31;61467;50.674;4.618;2022-12-29T14:13:40;10.40;69.53
72650;SHT31;61467;50.674;4.618;2022-12-29T14:16:22;10.47;69.76
72650;SHT31;61467;50.674;4.618;2022-12-29T14:18:50;10.43;69.75
72650;SHT31;61467;50.674;4.618;2022-12-29T14:21:21;10.45;68.73
72650;SHT31;61467;50.674;4.618;2022-12-29T14:23:53;10.50;68.91
72650;SHT31;61467;50.674;4.618;2022-12-29T14:26:34;10.40;69.38
72650;SHT31;61467;50.674;4.618;2022-12-29T14:29:16;10.45;69.17
72650;SHT31;61467;50.674;4.618;2022-12-29T14:32:38;10.40;69.14
72650;SHT31;61467;50.674;4.618;2022-12-29T14:35:37;10.44;69.58
72650;SHT31;61467;50.674;4.618;2022-12-29T14:38:18;10.65;68.95
72650;SHT31;61467;50.674;4.618;2022-12-29T14:40:46;10.69;69.34
72650;SHT31;61467;50.674;4.618;2022-12-29T14:43:22;10.65;69.52
72650;SHT31;61467;50.674;4.618;2022-12-29T14:45:56;10.60;70.83
72650;SHT31;61467;50.674;4.618;2022-12-29T14:48:34;10.41;73.17
72650;SHT31;61467;50.674;4.618;2022-12-29T14:51:16;10.20;75.71
72650;SHT31;61467;50.674;4.618;2022-12-29T14:53:47;9.79;78.41
72650;SHT31;61467;50.674;4.618;2022-12-29T14:56:16;9.79;79.27
72650;SHT31;61467;50.674;4.618;2022-12-29T14:58:47;9.46;80.31
72650;SHT31;61467;50.674;4.618;2022-12-29T15:01:22;9.51;81.41
72650;SHT31;61467;50.674;4.618;2022-12-29T15:03:54;9.42;81.46
72650;SHT31;61467;50.674;4.618;2022-12-29T15:06:24;9.45;81.10
72650;SHT31;61467;50.674;4.618;2022-12-29T15:08:55;9.59;80.24
72650;SHT31;61467;50.674;4.618;2022-12-29T15:11:41;9.85;79.67
72650;SHT31;61467;50.674;4.618;2022-12-29T15:14:30;9.49;79.63
72650;SHT31;61467;50.674;4.618;2022-12-29T15:16:58;9.58;79.67
72650;SHT31;61467;50.674;4.618;2022-12-29T15:19:27;9.46;79.54
72650;SHT31;61467;50.674;4.618;2022-12-29T15:21:54;9.41;80.42
72650;SHT31;61467;50.674;4.618;2022-12-29T15:24:22;9.61;79.28
72650;SHT31;61467;50.674;4.618;2022-12-29T15:26:51;9.63;78.60
72650;SHT31;61467;50.674;4.618;2022-12-29T15:29:35;9.59;79.29
72650;SHT31;61467;50.674;4.618;2022-12-29T15:32:16;9.52;79.44
72650;SHT31;61467;50.674;4.618;2022-12-29T15:34:45;9.24;80.24
72650;SHT31;61467;50.674;4.618;2022-12-29T15:37:18;9.14;82.37
72650;SHT31;61467;50.674;4.618;2022-12-29T15:39:45;9.10;81.67
72650;SHT31;61467;50.674;4.618;2022-12-29T15:42:29;8.88;80.75
72650;SHT31;61467;50.674;4.618;2022-12-29T15:44:59;8.84;79.68
72650;SHT31;61467;50.674;4.618;2022-12-29T15:47:30;8.79;78.78
72650;SHT31;61467;50.674;4.618;2022-12-29T15:50:02;8.42;78.99
72650;SHT31;61467;50.674;4.618;2022-12-29T15:52:32;8.45;79.44
72650;SHT31;61467;50.674;4.618;2022-12-29T15:54:59;8.48;79.03
72650;SHT31;61467;50.674;4.618;2022-12-29T15:57:29;8.45;79.14
72650;SHT31;61467;50.674;4.618;2022-12-29T15:59:57;8.32;79.94
72650;SHT31;61467;50.674;4.618;2022-12-29T16:02:27;8.46;79.24
72650;SHT31;61467;50.674;4.618;2022-12-29T16:04:54;8.49;79.96